createdAt,value
2023-04-01T00:01:22.580Z,8.10
2023-04-01T00:03:51.383Z,8.00
2023-04-01T00:06:20.968Z,8.00
2023-04-01T00:08:49.570Z,8.00
2023-04-01T00:11:20.486Z,8.00
2023-04-01T00:13:50.120Z,8.00
2023-04-01T00:16:21.905Z,8.10
2023-04-01T00:18:52.801Z,8.20
2023-04-01T00:21:23.026Z,8.30
2023-04-01T00:23:52.849Z,8.40
2023-04-01T00:26:22.974Z,8.50
2023-04-01T00:28:52.078Z,8.60
2023-04-01T00:31:22.753Z,8.70
2023-04-01T00:33:51.735Z,8.80
2023-04-01T00:36:22.904Z,8.90
2023-04-01T00:38:52.810Z,8.90
2023-04-01T00:41:27.201Z,8.90
2023-04-01T00:44:10.404Z,9.10
2023-04-01T00:46:40.506Z,9.10
2023-04-01T00:49:09.327Z,9.20
2023-04-01T00:51:40.026Z,9.30
2023-04-01T00:54:11.831Z,9.30
2023-04-01T00:56:45.500Z,9.40
2023-04-01T00:59:18.628Z,9.50
2023-04-01T01:01:48.762Z,9.50
2023-04-01T01:04:28.552Z,9.60
2023-04-01T01:07:14.207Z,9.60
2023-04-01T01:09:53.831Z,9.60
2023-04-01T01:12:26.711Z,9.70
2023-04-01T01:15:00.815Z,9.70
2023-04-01T01:17:41.297Z,9.70
2023-04-01T01:20:48.961Z,9.80
2023-04-01T01:23:58.278Z,9.80
2023-04-01T01:26:42.680Z,9.80
2023-04-01T01:29:27.574Z,9.80
2023-04-01T01:32:04.371Z,9.80
2023-04-01T01:34:38.632Z,9.80
2023-04-01T01:37:13.449Z,9.80
2023-04-01T01:39:44.612Z,9.80
2023-04-01T01:42:17.841Z,9.80
2023-04-01T01:44:50.886Z,9.80
2023-04-01T01:47:21.102Z,9.80
2023-04-01T01:49:50.466Z,9.80
2023-04-01T01:52:21.080Z,9.90
2023-04-01T01:54:50.780Z,9.80
2023-04-01T01:57:23.021Z,9.80
2023-04-01T01:59:57.181Z,9.80
2023-04-01T02:02:32.652Z,9.80
2023-04-01T02:05:01.898Z,9.80
2023-04-01T02:07:37.719Z,9.60
2023-04-01T02:10:07.887Z,9.60
2023-04-01T02:12:38.418Z,9.50
2023-04-01T02:15:11.251Z,9.50
2023-04-01T02:17:45.003Z,9.60
2023-04-01T02:20:18.076Z,9.60
2023-04-01T02:22:51.917Z,9.70
2023-04-01T02:25:24.929Z,9.60
2023-04-01T02:27:55.106Z,9.70
2023-04-01T02:30:24.573Z,9.70
2023-04-01T02:32:53.645Z,9.70
2023-04-01T02:35:22.522Z,9.70
2023-04-01T02:37:54.751Z,9.70
2023-04-01T02:40:23.600Z,9.70
2023-04-01T02:42:52.475Z,9.80
2023-04-01T02:45:21.500Z,9.80
2023-04-01T02:47:50.184Z,9.80
2023-04-01T02:50:19.072Z,9.80
2023-04-01T02:52:47.773Z,9.80
2023-04-01T02:55:18.030Z,9.80
2023-04-01T02:57:46.891Z,9.80
2023-04-01T03:00:16.947Z,9.80
2023-04-01T03:02:46.073Z,9.80
2023-04-01T03:05:14.874Z,9.80
2023-04-01T03:07:43.518Z,9.80
2023-04-01T03:10:12.688Z,9.80
2023-04-01T03:12:42.971Z,9.80
2023-04-01T03:15:14.521Z,9.80
2023-04-01T03:17:44.143Z,9.80
2023-04-01T03:20:14.097Z,9.80
2023-04-01T03:22:43.141Z,9.80
2023-04-01T03:25:13.014Z,9.70
2023-04-01T03:27:43.128Z,9.80
2023-04-01T03:30:12.733Z,9.80
2023-04-01T03:32:49.823Z,9.80
2023-04-01T03:35:18.735Z,9.80
2023-04-01T03:37:48.234Z,9.70
2023-04-01T03:40:17.108Z,9.70
2023-04-01T03:42:48.871Z,9.70
2023-04-01T03:45:17.465Z,9.70
2023-04-01T03:47:46.264Z,9.70
2023-04-01T03:50:14.772Z,9.70
2023-04-01T03:52:43.920Z,9.70
2023-04-01T03:55:12.607Z,9.70
2023-04-01T03:57:42.041Z,9.70
2023-04-01T04:00:21.379Z,9.70
2023-04-01T04:02:56.249Z,9.60
2023-04-01T04:05:30.602Z,9.60
2023-04-01T04:07:59.396Z,9.60
2023-04-01T04:10:30.280Z,9.60
2023-04-01T04:12:59.442Z,9.70
2023-04-01T04:15:32.549Z,9.60
2023-04-01T04:18:01.569Z,9.70
2023-04-01T04:20:30.287Z,9.70
2023-04-01T04:23:01.644Z,9.60
2023-04-01T04:25:30.619Z,9.60
2023-04-01T04:27:59.626Z,9.60
2023-04-01T04:30:29.367Z,9.60
2023-04-01T04:32:59.547Z,9.60
2023-04-01T04:35:28.226Z,9.60
2023-04-01T04:37:56.921Z,9.70
2023-04-01T04:40:25.432Z,9.60
2023-04-01T04:42:54.126Z,9.60
2023-04-01T04:45:23.000Z,9.60
2023-04-01T04:47:58.646Z,9.60
2023-04-01T04:50:27.768Z,9.60
2023-04-01T04:52:56.432Z,9.60
2023-04-01T04:55:25.578Z,9.50
2023-04-01T04:58:13.177Z,9.40
2023-04-01T05:00:44.910Z,9.30
2023-04-01T05:03:22.598Z,9.30
2023-04-01T05:05:52.716Z,9.30
2023-04-01T05:08:21.803Z,9.30
2023-04-01T05:10:50.443Z,9.30
2023-04-01T05:13:19.318Z,9.30
2023-04-01T05:15:59.827Z,9.30
2023-04-01T05:18:30.035Z,9.30
2023-04-01T05:20:58.691Z,9.40
2023-04-01T05:23:27.310Z,9.40
2023-04-01T05:25:58.063Z,9.30
2023-04-01T05:28:26.857Z,9.40
2023-04-01T05:30:55.915Z,9.40
2023-04-01T05:33:27.305Z,9.30
2023-04-01T05:35:57.690Z,9.40
2023-04-01T05:38:26.320Z,9.40
2023-04-01T05:41:01.372Z,9.40
2023-04-01T05:43:30.940Z,9.50
2023-04-01T05:46:06.682Z,9.50
2023-04-01T05:48:43.811Z,9.50
2023-04-01T05:51:16.818Z,9.50
2023-04-01T05:53:46.186Z,9.60
2023-04-01T05:56:15.117Z,9.60
2023-04-01T05:59:18.076Z,9.60
2023-04-01T06:01:46.727Z,9.60
2023-04-01T06:04:17.789Z,9.60
2023-04-01T06:06:48.888Z,9.70
2023-04-01T06:09:20.403Z,9.70
2023-04-01T06:12:21.086Z,9.70
2023-04-01T06:15:04.732Z,9.80
2023-04-01T06:17:47.848Z,9.90
2023-04-01T06:20:25.506Z,10.00
2023-04-01T06:23:21.641Z,10.00
2023-04-01T06:26:00.228Z,10.10
2023-04-01T06:29:06.988Z,10.30
2023-04-01T06:32:00.366Z,10.40
2023-04-01T06:34:41.822Z,10.60
2023-04-01T06:37:29.017Z,10.70
2023-04-01T06:40:20.223Z,10.80
2023-04-01T06:43:02.395Z,11.00
2023-04-01T06:45:58.162Z,11.10
2023-04-01T06:49:01.755Z,11.10
2023-04-01T06:51:55.712Z,11.20
2023-04-01T06:54:46.016Z,11.20
2023-04-01T06:57:41.195Z,11.20
2023-04-01T07:00:16.682Z,11.30
2023-04-01T07:02:54.758Z,11.40
2023-04-01T07:05:25.530Z,11.50
2023-04-01T07:08:00.218Z,11.60
2023-04-01T07:10:37.018Z,11.60
2023-04-01T07:13:30.013Z,11.70
2023-04-01T07:16:13.305Z,11.80
2023-04-01T07:18:48.138Z,11.80
2023-04-01T07:21:28.603Z,11.90
2023-04-01T07:24:03.611Z,12.10
2023-04-01T07:26:48.226Z,12.20
2023-04-01T07:29:21.622Z,12.30
2023-04-01T07:32:24.733Z,12.30
2023-04-01T07:35:11.818Z,12.40
2023-04-01T07:37:50.115Z,12.50
2023-04-01T07:40:51.688Z,12.50
2023-04-01T07:43:33.408Z,12.60
2023-04-01T07:46:31.838Z,12.60
2023-04-01T07:49:06.090Z,12.60
2023-04-01T07:51:42.996Z,12.50
2023-04-01T07:54:20.706Z,12.40
2023-04-01T07:56:56.310Z,12.20
2023-04-01T07:59:41.852Z,12.20
2023-04-01T08:02:54.654Z,12.20
2023-04-01T08:05:34.364Z,12.20
2023-04-01T08:08:14.351Z,12.30
2023-04-01T08:11:16.579Z,12.50
2023-04-01T08:14:11.230Z,12.70
2023-04-01T08:17:21.856Z,12.80
2023-04-01T08:20:03.713Z,12.90
2023-04-01T08:22:38.758Z,12.80
2023-04-01T08:25:20.105Z,12.70
2023-04-01T08:27:53.730Z,12.60
2023-04-01T08:30:25.759Z,12.40
2023-04-01T08:32:59.095Z,12.20
2023-04-01T08:35:36.150Z,12.10
2023-04-01T08:38:14.661Z,12.00
2023-04-01T08:41:02.245Z,11.90
2023-04-01T08:44:28.765Z,11.80
2023-04-01T08:47:22.585Z,11.80
2023-04-01T08:50:07.181Z,11.80
2023-04-01T08:53:04.756Z,11.70
2023-04-01T08:55:48.661Z,11.70
2023-04-01T08:58:49.084Z,11.80
2023-04-01T09:01:37.518Z,11.90
2023-04-01T09:04:31.963Z,11.90
2023-04-01T09:07:22.542Z,12.00
2023-04-01T09:10:20.043Z,12.00
2023-04-01T09:13:17.152Z,12.10
2023-04-01T09:16:20.993Z,12.20
2023-04-01T09:19:17.462Z,12.30
2023-04-01T09:22:01.315Z,12.40
2023-04-01T09:24:58.700Z,12.60
2023-04-01T09:27:35.802Z,12.70
2023-04-01T09:30:36.108Z,12.70
2023-04-01T09:33:45.478Z,12.60
2023-04-01T09:36:30.576Z,12.50
2023-04-01T09:39:02.114Z,12.40
2023-04-01T09:41:34.210Z,12.40
2023-04-01T09:44:33.422Z,12.40
2023-04-01T09:47:33.097Z,12.50
2023-04-01T09:50:29.412Z,12.50
2023-04-01T09:53:07.454Z,12.50
2023-04-01T09:56:12.624Z,12.50
2023-04-01T09:59:11.502Z,12.50
2023-04-01T10:02:33.441Z,12.50
2023-04-01T10:05:38.634Z,12.30
2023-04-01T10:08:39.320Z,12.10
2023-04-01T10:11:35.340Z,12.20
2023-04-01T10:14:28.508Z,12.20
2023-04-01T10:17:26.448Z,12.20
2023-04-01T10:20:27.537Z,12.20
2023-04-01T10:23:20.666Z,12.20
2023-04-01T10:26:15.978Z,12.20
2023-04-01T10:29:03.973Z,12.30
2023-04-01T10:32:30.555Z,12.50
2023-04-01T10:35:22.700Z,12.70
2023-04-01T10:38:25.588Z,12.90
2023-04-01T10:41:31.081Z,13.00
2023-04-01T10:44:52.549Z,13.00
2023-04-01T10:48:07.049Z,12.90
2023-04-01T10:51:17.366Z,12.70
2023-04-01T10:54:00.374Z,12.60
2023-04-01T10:57:13.592Z,12.40
2023-04-01T11:00:31.173Z,12.20
2023-04-01T11:04:11.806Z,12.10
2023-04-01T11:07:38.174Z,12.00
2023-04-01T11:11:15.698Z,12.10
2023-04-01T11:14:12.386Z,12.10
2023-04-01T11:17:17.628Z,12.00
2023-04-01T11:20:25.821Z,11.90
2023-04-01T11:23:14.887Z,11.80
2023-04-01T11:26:04.815Z,11.70
2023-04-01T11:29:38.893Z,11.60
2023-04-01T11:32:38.408Z,11.50
2023-04-01T11:35:31.155Z,11.60
2023-04-01T11:38:13.879Z,11.50
2023-04-01T11:40:53.929Z,11.60
2023-04-01T11:43:48.640Z,11.60
2023-04-01T11:47:06.070Z,11.70
2023-04-01T11:49:47.312Z,11.90
2023-04-01T11:52:44.981Z,12.00
2023-04-01T11:55:27.151Z,12.00
2023-04-01T11:58:18.879Z,11.90
2023-04-01T12:01:24.869Z,11.90
2023-04-01T12:04:41.264Z,11.70
2023-04-01T12:07:23.757Z,11.60
2023-04-01T12:10:01.444Z,11.70
2023-04-01T12:12:47.685Z,11.70
2023-04-01T12:15:28.793Z,11.80
2023-04-01T12:18:06.573Z,11.80
2023-04-01T12:20:47.865Z,11.90
2023-04-01T12:23:42.483Z,11.80
2023-04-01T12:26:29.424Z,11.80
2023-04-01T12:29:16.476Z,11.80
2023-04-01T12:31:53.697Z,11.90
2023-04-01T12:34:40.844Z,11.90
2023-04-01T12:37:18.220Z,11.80
2023-04-01T12:40:27.327Z,11.80
2023-04-01T12:43:07.872Z,11.80
2023-04-01T12:45:37.355Z,11.80
2023-04-01T12:48:35.265Z,11.70
2023-04-01T12:51:23.016Z,11.50
2023-04-01T12:54:19.295Z,11.40
2023-04-01T12:56:56.410Z,11.40
2023-04-01T12:59:55.428Z,11.40
2023-04-01T13:02:39.610Z,11.30
2023-04-01T13:05:27.217Z,11.30
2023-04-01T13:08:17.124Z,11.20
2023-04-01T13:11:06.231Z,11.20
2023-04-01T13:14:06.269Z,11.20
2023-04-01T13:16:38.936Z,11.20
2023-04-01T13:19:15.986Z,11.30
2023-04-01T13:21:53.830Z,11.30
2023-04-01T13:24:40.549Z,11.30
2023-04-01T13:27:16.065Z,11.20
2023-04-01T13:29:54.015Z,11.20
2023-04-01T13:32:43.224Z,11.20
2023-04-01T13:35:39.399Z,11.20
2023-04-01T13:38:25.191Z,11.30
2023-04-01T13:41:04.118Z,11.30
2023-04-01T13:43:38.353Z,11.30
2023-04-01T13:46:36.290Z,11.40
2023-04-01T13:49:35.219Z,11.40
2023-04-01T13:52:12.052Z,11.40
2023-04-01T13:55:21.830Z,11.40
2023-04-01T13:58:20.437Z,11.40
2023-04-01T14:01:03.563Z,11.40
2023-04-01T14:04:06.402Z,11.30
2023-04-01T14:06:42.463Z,11.30
2023-04-01T14:09:34.205Z,11.30
2023-04-01T14:12:08.376Z,11.30
2023-04-01T14:14:54.790Z,11.30
2023-04-01T14:17:47.463Z,11.40
2023-04-01T14:20:30.285Z,11.50
2023-04-01T14:23:19.529Z,11.50
2023-04-01T14:26:06.200Z,11.60
2023-04-01T14:28:43.836Z,11.60
2023-04-01T14:31:29.355Z,11.60
2023-04-01T14:34:12.207Z,11.60
2023-04-01T14:37:00.584Z,11.60
2023-04-01T14:39:50.066Z,11.70
2023-04-01T14:42:43.741Z,11.70
2023-04-01T14:45:43.857Z,11.70
2023-04-01T14:48:24.471Z,11.50
2023-04-01T14:50:55.671Z,11.40
2023-04-01T14:53:31.713Z,11.30
2023-04-01T14:56:01.837Z,11.20
2023-04-01T14:58:45.828Z,11.20
2023-04-01T15:01:27.967Z,11.20
2023-04-01T15:04:07.413Z,11.10
2023-04-01T15:06:58.583Z,11.10
2023-04-01T15:09:39.987Z,11.10
2023-04-01T15:12:20.963Z,11.00
2023-04-01T15:15:20.035Z,11.00
2023-04-01T15:18:01.133Z,11.00
2023-04-01T15:20:55.992Z,11.00
2023-04-01T15:23:33.927Z,11.00
2023-04-01T15:26:21.340Z,11.00
2023-04-01T15:29:02.996Z,11.00
2023-04-01T15:31:39.403Z,10.90
2023-04-01T15:34:22.516Z,11.00
2023-04-01T15:36:57.646Z,11.00
2023-04-01T15:39:34.103Z,11.00
2023-04-01T15:42:34.112Z,11.00
2023-04-01T15:45:19.179Z,11.00
2023-04-01T15:48:01.350Z,11.00
2023-04-01T15:51:02.256Z,11.00
2023-04-01T15:53:44.529Z,11.00
2023-04-01T15:56:27.921Z,11.10
2023-04-01T15:59:12.574Z,11.10
2023-04-01T16:01:49.198Z,11.10
2023-04-01T16:04:49.052Z,11.10
2023-04-01T16:07:56.354Z,11.00
2023-04-01T16:10:39.926Z,11.00
2023-04-01T16:13:25.370Z,10.90
2023-04-01T16:16:09.299Z,10.80
2023-04-01T16:18:57.570Z,10.70
2023-04-01T16:21:38.284Z,10.60
2023-04-01T16:24:17.514Z,10.60
2023-04-01T16:26:52.724Z,10.50
2023-04-01T16:29:29.691Z,10.50
2023-04-01T16:32:11.576Z,10.40
2023-04-01T16:34:46.482Z,10.40
2023-04-01T16:37:19.682Z,10.30
2023-04-01T16:39:54.580Z,10.30
2023-04-01T16:42:33.463Z,10.30
2023-04-01T16:45:05.349Z,10.20
2023-04-01T16:47:41.521Z,10.20
2023-04-01T16:50:21.746Z,10.10
2023-04-01T16:53:12.382Z,10.10
2023-04-01T16:55:51.488Z,10.10
2023-04-01T16:58:26.694Z,10.00
2023-04-01T17:01:01.244Z,10.00
2023-04-01T17:03:35.888Z,10.00
2023-04-01T17:06:21.776Z,10.00
2023-04-01T17:09:03.899Z,10.00
2023-04-01T17:11:41.352Z,9.90
2023-04-01T17:14:19.946Z,9.90
2023-04-01T17:17:31.920Z,9.90
2023-04-01T17:20:27.498Z,9.80
2023-04-01T17:23:00.100Z,9.80
2023-04-01T17:25:40.724Z,9.80
2023-04-01T17:28:22.689Z,9.80
2023-04-01T17:31:00.636Z,9.80
2023-04-01T17:33:58.894Z,9.70
2023-04-01T17:36:39.643Z,9.70
2023-04-01T17:39:35.030Z,9.70
2023-04-01T17:42:09.285Z,9.60
2023-04-01T17:44:48.218Z,9.70
2023-04-01T17:47:33.771Z,9.60
2023-04-01T17:50:16.516Z,9.50
2023-04-01T17:52:50.968Z,9.50
2023-04-01T17:55:48.630Z,9.50
2023-04-01T17:58:22.362Z,9.50
2023-04-01T18:01:05.296Z,9.50
2023-04-01T18:04:00.613Z,9.50
2023-04-01T18:06:39.332Z,9.50
2023-04-01T18:09:24.065Z,9.50
2023-04-01T18:12:06.168Z,9.50
2023-04-01T18:15:06.433Z,9.50
2023-04-01T18:17:44.985Z,9.40
2023-04-01T18:20:39.929Z,9.40
2023-04-01T18:23:21.543Z,9.40
2023-04-01T18:25:56.470Z,9.40
2023-04-01T18:28:35.054Z,9.40
2023-04-01T18:31:11.357Z,9.40
2023-04-01T18:33:50.304Z,9.40
2023-04-01T18:36:26.874Z,9.40
2023-04-01T18:38:59.225Z,9.30
2023-04-01T18:41:36.463Z,9.30
2023-04-01T18:44:27.124Z,9.30
2023-04-01T18:47:05.560Z,9.30
2023-04-01T18:49:45.693Z,9.30
2023-04-01T18:52:22.956Z,9.30
2023-04-01T18:55:10.580Z,9.40
2023-04-01T18:57:48.775Z,9.40
2023-04-01T19:00:23.363Z,9.40
2023-04-01T19:02:59.819Z,9.40
2023-04-01T19:05:34.156Z,9.50
2023-04-01T19:08:21.862Z,9.50
2023-04-01T19:11:02.108Z,9.50
2023-04-01T19:13:43.325Z,9.50
2023-04-01T19:16:18.468Z,9.50
2023-04-01T19:19:04.387Z,9.50
2023-04-01T19:21:38.149Z,9.50
2023-04-01T19:24:38.251Z,9.50
2023-04-01T19:27:17.650Z,9.50
2023-04-01T19:30:00.729Z,9.50
2023-04-01T19:32:42.493Z,9.50
2023-04-01T19:35:22.159Z,9.50
2023-04-01T19:37:56.856Z,9.50
2023-04-01T19:40:50.177Z,9.50
2023-04-01T19:43:29.428Z,9.50
2023-04-01T19:46:07.859Z,9.50
2023-04-01T19:48:50.856Z,9.50
2023-04-01T19:51:27.263Z,9.50
2023-04-01T19:54:03.199Z,9.50
2023-04-01T19:56:41.390Z,9.50
2023-04-01T19:59:19.020Z,9.50
2023-04-01T20:01:55.422Z,9.50
2023-04-01T20:04:29.560Z,9.50
2023-04-01T20:07:03.519Z,9.50
2023-04-01T20:09:51.397Z,9.50
2023-04-01T20:12:36.375Z,9.50
2023-04-01T20:15:19.260Z,9.50
2023-04-01T20:17:51.900Z,9.50
2023-04-01T20:20:23.544Z,9.50
2023-04-01T20:23:08.687Z,9.60
2023-04-01T20:25:46.017Z,9.60
2023-04-01T20:28:22.265Z,9.60
2023-04-01T20:31:03.973Z,9.60
2023-04-01T20:34:00.348Z,9.60
2023-04-01T20:36:37.218Z,9.60
2023-04-01T20:39:30.694Z,9.60
2023-04-01T20:42:24.936Z,9.60
2023-04-01T20:45:03.378Z,9.60
2023-04-01T20:47:45.418Z,9.60
2023-04-01T20:50:27.469Z,9.60
2023-04-01T20:53:03.831Z,9.60
2023-04-01T20:56:14.170Z,9.70
2023-04-01T20:58:52.977Z,9.70
2023-04-01T21:01:36.454Z,9.60
2023-04-01T21:04:29.659Z,9.60
2023-04-01T21:07:18.592Z,9.70
2023-04-01T21:10:07.767Z,9.70
2023-04-01T21:12:46.210Z,9.70
2023-04-01T21:15:28.771Z,9.70
2023-04-01T21:18:19.674Z,9.70
2023-04-01T21:21:17.523Z,9.70
2023-04-01T21:24:05.468Z,9.70
2023-04-01T21:26:50.512Z,9.70
2023-04-01T21:29:50.468Z,9.70
2023-04-01T21:32:48.981Z,9.60
2023-04-01T21:35:29.940Z,9.70
2023-04-01T21:38:26.234Z,9.70
2023-04-01T21:41:23.082Z,9.60
2023-04-01T21:44:12.908Z,9.60
2023-04-01T21:47:13.676Z,9.60
2023-04-01T21:50:08.854Z,9.60
2023-04-01T21:52:57.129Z,9.60
2023-04-01T21:55:53.090Z,9.60
2023-04-01T21:59:02.594Z,9.60
2023-04-01T22:01:59.022Z,9.60
2023-04-01T22:04:40.481Z,9.60
2023-04-01T22:07:14.533Z,9.60
2023-04-01T22:09:52.333Z,9.60
2023-04-01T22:12:30.537Z,9.60
2023-04-01T22:15:08.146Z,9.60
2023-04-01T22:17:47.514Z,9.60
2023-04-01T22:20:25.637Z,9.60
2023-04-01T22:23:19.963Z,9.60
2023-04-01T22:25:59.667Z,9.60
2023-04-01T22:28:33.084Z,9.60
2023-04-01T22:31:03.256Z,9.60
2023-04-01T22:33:39.319Z,9.60
2023-04-01T22:36:19.700Z,9.60
2023-04-01T22:39:00.303Z,9.60
2023-04-01T22:41:42.658Z,9.60
2023-04-01T22:44:23.263Z,9.50
2023-04-01T22:47:00.519Z,9.50
2023-04-01T22:49:34.940Z,9.50
2023-04-01T22:52:10.995Z,9.50
2023-04-01T22:54:44.398Z,9.50
2023-04-01T22:57:17.685Z,9.50
2023-04-01T22:59:53.643Z,9.50
2023-04-01T23:02:28.963Z,9.50
2023-04-01T23:05:03.187Z,9.50
2023-04-01T23:07:48.073Z,9.50
2023-04-01T23:10:24.813Z,9.50
2023-04-01T23:12:56.300Z,9.50
2023-04-01T23:15:26.012Z,9.50
2023-04-01T23:18:06.120Z,9.50
2023-04-01T23:20:58.699Z,9.50
2023-04-01T23:23:36.134Z,9.50
2023-04-01T23:26:10.244Z,9.40
2023-04-01T23:28:50.011Z,9.40
2023-04-01T23:31:39.610Z,9.40
2023-04-01T23:34:26.752Z,9.40
2023-04-01T23:37:00.316Z,9.40
2023-04-01T23:39:34.007Z,9.50
2023-04-01T23:42:06.948Z,9.50
2023-04-01T23:44:37.550Z,9.40
2023-04-01T23:47:10.142Z,9.40
2023-04-01T23:49:44.069Z,9.40
2023-04-01T23:52:17.016Z,9.40
2023-04-01T23:54:50.639Z,9.40
2023-04-01T23:57:23.490Z,9.50
